sensor_id;sensor_type;location;lat;lon;timestamp;temperature;humidity
17442;DHT22;8838;50.144;8.176;2023-02-03T00:00:41;6.40;99.90
17442;DHT22;8838;50.144;8.176;2023-02-03T00:03:08;6.40;99.90
17442;DHT22;8838;50.144;8.176;2023-02-03T00:05:35;6.40;99.90
17442;DHT22;8838;50.144;8.176;2023-02-03T00:08:05;6.40;99.90
17442;DHT22;8838;50.144;8.176;2023-02-03T00:10:34;6.30;99.90
17442;DHT22;8838;50.144;8.176;2023-02-03T00:13:01;6.40;99.90
17442;DHT22;8838;50.144;8.176;2023-02-03T00:15:28;6.40;99.90
17442;DHT22;8838;50.144;8.176;2023-02-03T00:17:55;6.40;99.90
17442;DHT22;8838;50.144;8.176;2023-02-03T00:20:21;6.40;99.90
17442;DHT22;8838;50.144;8.176;2023-02-03T00:22:48;6.40;99.90
17442;DHT22;8838;50.144;8.176;2023-02-03T00:25:17;6.40;99.90
17442;DHT22;8838;50.144;8.176;2023-02-03T00:27:46;6.40;99.90
17442;DHT22;8838;50.144;8.176;2023-02-03T00:30:13;6.40;99.90
17442;DHT22;8838;50.144;8.176;2023-02-03T00:32:39;6.40;99.90
17442;DHT22;8838;50.144;8.176;2023-02-03T00:35:07;6.40;99.90
17442;DHT22;8838;50.144;8.176;2023-02-03T00:37:34;6.40;99.90
17442;DHT22;8838;50.144;8.176;2023-02-03T00:40:00;6.40;99.90
17442;DHT22;8838;50.144;8.176;2023-02-03T00:42:28;6.40;99.90
17442;DHT22;8838;50.144;8.176;2023-02-03T00:44:57;6.40;99.90
17442;DHT22;8838;50.144;8.176;2023-02-03T00:47:24;6.30;99.90
17442;DHT22;8838;50.144;8.176;2023-02-03T00:49:51;6.40;99.90
17442;DHT22;8838;50.144;8.176;2023-02-03T00:52:18;6.30;99.90
17442;DHT22;8838;50.144;8.176;2023-02-03T00:54:44;6.30;99.90
17442;DHT22;8838;50.144;8.176;2023-02-03T00:57:12;6.30;99.90
17442;DHT22;8838;50.144;8.176;2023-02-03T00:59:40;6.40;99.90
17442;DHT22;8838;50.144;8.176;2023-02-03T01:02:07;6.40;99.90
17442;DHT22;8838;50.144;8.176;2023-02-03T01:04:34;6.30;99.90
17442;DHT22;8838;50.144;8.176;2023-02-03T01:07:01;6.40;99.90
17442;DHT22;8838;50.144;8.176;2023-02-03T01:09:27;6.40;99.90
17442;DHT22;8838;50.144;8.176;2023-02-03T01:11:54;6.40;99.90
17442;DHT22;8838;50.144;8.176;2023-02-03T01:14:21;6.40;99.90
17442;DHT22;8838;50.144;8.176;2023-02-03T01:16:49;6.40;99.90
17442;DHT22;8838;50.144;8.176;2023-02-03T01:19:16;6.40;99.90
17442;DHT22;8838;50.144;8.176;2023-02-03T01:21:43;6.40;99.90
17442;DHT22;8838;50.144;8.176;2023-02-03T01:24:10;6.40;99.90
17442;DHT22;8838;50.144;8.176;2023-02-03T01:26:39;6.40;99.90
17442;DHT22;8838;50.144;8.176;2023-02-03T01:29:07;6.50;99.90
17442;DHT22;8838;50.144;8.176;2023-02-03T01:31:35;6.50;99.90
17442;DHT22;8838;50.144;8.176;2023-02-03T01:34:06;6.50;99.90
17442;DHT22;8838;50.144;8.176;2023-02-03T01:36:34;6.40;99.90
17442;DHT22;8838;50.144;8.176;2023-02-03T01:39:01;6.40;99.90
17442;DHT22;8838;50.144;8.176;2023-02-03T01:41:31;6.40;99.90
17442;DHT22;8838;50.144;8.176;2023-02-03T01:43:59;6.40;99.90
17442;DHT22;8838;50.144;8.176;2023-02-03T01:46:30;6.40;99.90
17442;DHT22;8838;50.144;8.176;2023-02-03T01:49:05;6.50;99.90
17442;DHT22;8838;50.144;8.176;2023-02-03T01:51:34;6.40;99.90
17442;DHT22;8838;50.144;8.176;2023-02-03T01:54:03;6.40;99.90
17442;DHT22;8838;50.144;8.176;2023-02-03T01:56:35;6.50;99.90
17442;DHT22;8838;50.144;8.176;2023-02-03T01:59:04;6.40;99.90
17442;DHT22;8838;50.144;8.176;2023-02-03T02:01:32;6.40;99.90
17442;DHT22;8838;50.144;8.176;2023-02-03T02:04:01;6.40;99.90
17442;DHT22;8838;50.144;8.176;2023-02-03T02:06:30;6.40;99.90
17442;DHT22;8838;50.144;8.176;2023-02-03T02:08:58;6.40;99.90
17442;DHT22;8838;50.144;8.176;2023-02-03T02:11:26;6.50;99.90
17442;DHT22;8838;50.144;8.176;2023-02-03T02:13:57;6.50;99.90
17442;DHT22;8838;50.144;8.176;2023-02-03T02:16:34;6.40;99.90
17442;DHT22;8838;50.144;8.176;2023-02-03T02:19:28;6.40;99.90
17442;DHT22;8838;50.144;8.176;2023-02-03T02:22:07;6.30;99.90
17442;DHT22;8838;50.144;8.176;2023-02-03T02:25:13;6.30;99.90
17442;DHT22;8838;50.144;8.176;2023-02-03T02:28:08;6.30;99.90
17442;DHT22;8838;50.144;8.176;2023-02-03T02:33:57;6.30;99.90
17442;DHT22;8838;50.144;8.176;2023-02-03T02:36:31;6.40;99.90
17442;DHT22;8838;50.144;8.176;2023-02-03T02:39:07;6.40;99.90
17442;DHT22;8838;50.144;8.176;2023-02-03T02:41:41;6.40;99.90
17442;DHT22;8838;50.144;8.176;2023-02-03T02:44:13;6.40;99.90
17442;DHT22;8838;50.144;8.176;2023-02-03T02:46:46;6.40;99.90
17442;DHT22;8838;50.144;8.176;2023-02-03T02:49:18;6.40;99.90
17442;DHT22;8838;50.144;8.176;2023-02-03T02:51:47;6.40;99.90
17442;DHT22;8838;50.144;8.176;2023-02-03T02:54:17;6.40;99.90
17442;DHT22;8838;50.144;8.176;2023-02-03T02:56:48;6.50;99.90
17442;DHT22;8838;50.144;8.176;2023-02-03T02:59:17;6.40;99.90
17442;DHT22;8838;50.144;8.176;2023-02-03T03:01:44;6.50;99.90
17442;DHT22;8838;50.144;8.176;2023-02-03T03:04:12;6.50;99.90
17442;DHT22;8838;50.144;8.176;2023-02-03T03:06:46;6.50;99.90
17442;DHT22;8838;50.144;8.176;2023-02-03T03:09:17;6.40;99.90
17442;DHT22;8838;50.144;8.176;2023-02-03T03:11:49;6.40;99.90
17442;DHT22;8838;50.144;8.176;2023-02-03T03:14:18;6.40;99.90
17442;DHT22;8838;50.144;8.176;2023-02-03T03:16:52;6.30;99.90
17442;DHT22;8838;50.144;8.176;2023-02-03T03:19:21;6.40;99.90
17442;DHT22;8838;50.144;8.176;2023-02-03T03:21:53;6.50;99.90
17442;DHT22;8838;50.144;8.176;2023-02-03T03:24:24;6.50;99.90
17442;DHT22;8838;50.144;8.176;2023-02-03T03:26:54;6.50;99.90
17442;DHT22;8838;50.144;8.176;2023-02-03T03:29:27;6.40;99.90
17442;DHT22;8838;50.144;8.176;2023-02-03T03:31:56;6.50;99.90
17442;DHT22;8838;50.144;8.176;2023-02-03T03:34:23;6.50;99.90
17442;DHT22;8838;50.144;8.176;2023-02-03T03:36:55;6.60;99.90
17442;DHT22;8838;50.144;8.176;2023-02-03T03:39:29;6.50;99.90
17442;DHT22;8838;50.144;8.176;2023-02-03T03:42:00;6.50;99.90
17442;DHT22;8838;50.144;8.176;2023-02-03T03:44:36;6.50;99.90
17442;DHT22;8838;50.144;8.176;2023-02-03T03:47:10;6.50;99.90
17442;DHT22;8838;50.144;8.176;2023-02-03T03:49:40;6.50;99.90
17442;DHT22;8838;50.144;8.176;2023-02-03T03:52:13;6.50;99.90
17442;DHT22;8838;50.144;8.176;2023-02-03T03:54:42;6.40;99.90
17442;DHT22;8838;50.144;8.176;2023-02-03T03:57:12;6.50;99.90
17442;DHT22;8838;50.144;8.176;2023-02-03T03:59:43;6.50;99.90
17442;DHT22;8838;50.144;8.176;2023-02-03T04:02:12;6.50;99.90
17442;DHT22;8838;50.144;8.176;2023-02-03T04:04:40;6.50;99.90
17442;DHT22;8838;50.144;8.176;2023-02-03T04:07:11;6.50;99.90
17442;DHT22;8838;50.144;8.176;2023-02-03T04:09:38;6.50;99.90
17442;DHT22;8838;50.144;8.176;2023-02-03T04:12:15;6.50;99.90
17442;DHT22;8838;50.144;8.176;2023-02-03T04:14:45;6.50;99.90
17442;DHT22;8838;50.144;8.176;2023-02-03T04:17:12;6.40;99.90
17442;DHT22;8838;50.144;8.176;2023-02-03T04:19:39;6.50;99.90
17442;DHT22;8838;50.144;8.176;2023-02-03T04:22:05;6.50;99.90
17442;DHT22;8838;50.144;8.176;2023-02-03T04:24:34;6.40;99.90
17442;DHT22;8838;50.144;8.176;2023-02-03T04:27:00;6.40;99.90
17442;DHT22;8838;50.144;8.176;2023-02-03T04:29:27;6.30;99.90
17442;DHT22;8838;50.144;8.176;2023-02-03T04:31:54;6.30;99.90
17442;DHT22;8838;50.144;8.176;2023-02-03T04:34:21;6.30;99.90
17442;DHT22;8838;50.144;8.176;2023-02-03T04:36:48;6.30;99.90
17442;DHT22;8838;50.144;8.176;2023-02-03T04:39:14;6.40;99.90
17442;DHT22;8838;50.144;8.176;2023-02-03T04:41:43;6.30;99.90
17442;DHT22;8838;50.144;8.176;2023-02-03T04:44:09;6.30;99.90
17442;DHT22;8838;50.144;8.176;2023-02-03T04:46:37;6.30;99.90
17442;DHT22;8838;50.144;8.176;2023-02-03T04:49:03;6.30;99.90
17442;DHT22;8838;50.144;8.176;2023-02-03T04:51:30;6.30;99.90
17442;DHT22;8838;50.144;8.176;2023-02-03T04:53:57;6.30;99.90
17442;DHT22;8838;50.144;8.176;2023-02-03T04:56:24;6.30;99.90
17442;DHT22;8838;50.144;8.176;2023-02-03T04:58:52;6.30;99.90
17442;DHT22;8838;50.144;8.176;2023-02-03T05:01:19;6.40;99.90
17442;DHT22;8838;50.144;8.176;2023-02-03T05:03:46;6.40;99.90
17442;DHT22;8838;50.144;8.176;2023-02-03T05:06:12;6.40;99.90
17442;DHT22;8838;50.144;8.176;2023-02-03T05:08:39;6.50;99.90
17442;DHT22;8838;50.144;8.176;2023-02-03T05:11:06;6.50;99.90
17442;DHT22;8838;50.144;8.176;2023-02-03T05:13:33;6.40;99.90
17442;DHT22;8838;50.144;8.176;2023-02-03T05:16:01;6.40;99.90
17442;DHT22;8838;50.144;8.176;2023-02-03T05:18:28;6.50;99.90
17442;DHT22;8838;50.144;8.176;2023-02-03T05:20:54;6.40;99.90
17442;DHT22;8838;50.144;8.176;2023-02-03T05:23:21;6.50;99.90
17442;DHT22;8838;50.144;8.176;2023-02-03T05:25:48;6.50;99.90
17442;DHT22;8838;50.144;8.176;2023-02-03T05:28:15;6.50;99.90
17442;DHT22;8838;50.144;8.176;2023-02-03T05:30:42;6.50;99.90
17442;DHT22;8838;50.144;8.176;2023-02-03T05:33:10;6.50;99.90
17442;DHT22;8838;50.144;8.176;2023-02-03T05:35:37;6.50;99.90
17442;DHT22;8838;50.144;8.176;2023-02-03T05:38:04;6.50;99.90
17442;DHT22;8838;50.144;8.176;2023-02-03T05:40:31;6.50;99.90
17442;DHT22;8838;50.144;8.176;2023-02-03T05:43:15;6.40;99.90
17442;DHT22;8838;50.144;8.176;2023-02-03T05:45:42;6.40;99.90
17442;DHT22;8838;50.144;8.176;2023-02-03T05:48:10;6.40;99.90
17442;DHT22;8838;50.144;8.176;2023-02-03T05:50:37;6.50;99.90
17442;DHT22;8838;50.144;8.176;2023-02-03T05:53:05;6.50;99.90
17442;DHT22;8838;50.144;8.176;2023-02-03T05:55:32;6.50;99.90
17442;DHT22;8838;50.144;8.176;2023-02-03T05:58:00;6.50;99.90
17442;DHT22;8838;50.144;8.176;2023-02-03T06:00:27;6.60;99.90
17442;DHT22;8838;50.144;8.176;2023-02-03T06:02:55;6.60;99.90
17442;DHT22;8838;50.144;8.176;2023-02-03T06:05:24;6.70;99.90
17442;DHT22;8838;50.144;8.176;2023-02-03T06:07:51;6.60;99.90
17442;DHT22;8838;50.144;8.176;2023-02-03T06:10:18;6.60;99.90
17442;DHT22;8838;50.144;8.176;2023-02-03T06:12:45;6.70;99.90
17442;DHT22;8838;50.144;8.176;2023-02-03T06:15:12;6.60;99.90
17442;DHT22;8838;50.144;8.176;2023-02-03T06:17:39;6.70;99.90
17442;DHT22;8838;50.144;8.176;2023-02-03T06:20:07;6.70;99.90
17442;DHT22;8838;50.144;8.176;2023-02-03T06:22:35;6.70;99.90
17442;DHT22;8838;50.144;8.176;2023-02-03T06:25:03;6.70;99.90
17442;DHT22;8838;50.144;8.176;2023-02-03T06:27:30;6.60;99.90
17442;DHT22;8838;50.144;8.176;2023-02-03T06:29:56;6.70;99.90
17442;DHT22;8838;50.144;8.176;2023-02-03T06:32:24;6.70;99.90
17442;DHT22;8838;50.144;8.176;2023-02-03T06:34:50;6.60;99.90
17442;DHT22;8838;50.144;8.176;2023-02-03T06:37:17;6.60;99.90
17442;DHT22;8838;50.144;8.176;2023-02-03T06:39:45;6.60;99.90
17442;DHT22;8838;50.144;8.176;2023-02-03T06:42:12;6.70;99.90
17442;DHT22;8838;50.144;8.176;2023-02-03T06:44:39;6.70;99.90
17442;DHT22;8838;50.144;8.176;2023-02-03T06:47:06;6.70;99.90
17442;DHT22;8838;50.144;8.176;2023-02-03T06:49:34;6.70;99.90
17442;DHT22;8838;50.144;8.176;2023-02-03T06:52:01;6.70;99.90
17442;DHT22;8838;50.144;8.176;2023-02-03T06:54:27;6.70;99.90
17442;DHT22;8838;50.144;8.176;2023-02-03T06:56:55;6.70;99.90
17442;DHT22;8838;50.144;8.176;2023-02-03T06:59:22;6.70;99.90
17442;DHT22;8838;50.144;8.176;2023-02-03T07:01:49;6.70;99.90
17442;DHT22;8838;50.144;8.176;2023-02-03T07:04:17;6.80;99.90
17442;DHT22;8838;50.144;8.176;2023-02-03T07:06:44;6.80;99.90
17442;DHT22;8838;50.144;8.176;2023-02-03T07:09:11;6.90;99.90
17442;DHT22;8838;50.144;8.176;2023-02-03T07:11:38;6.80;99.90
17442;DHT22;8838;50.144;8.176;2023-02-03T07:14:06;6.90;99.90
17442;DHT22;8838;50.144;8.176;2023-02-03T07:16:33;6.90;99.90
17442;DHT22;8838;50.144;8.176;2023-02-03T07:19:02;6.80;99.90
17442;DHT22;8838;50.144;8.176;2023-02-03T07:21:28;6.80;99.90
17442;DHT22;8838;50.144;8.176;2023-02-03T07:23:55;6.80;99.90
17442;DHT22;8838;50.144;8.176;2023-02-03T07:26:22;6.80;99.90
17442;DHT22;8838;50.144;8.176;2023-02-03T07:28:51;6.80;99.90
17442;DHT22;8838;50.144;8.176;2023-02-03T07:31:20;6.80;99.90
17442;DHT22;8838;50.144;8.176;2023-02-03T07:33:47;6.80;99.90
17442;DHT22;8838;50.144;8.176;2023-02-03T07:36:14;6.80;99.90
17442;DHT22;8838;50.144;8.176;2023-02-03T07:38:41;6.80;99.90
17442;DHT22;8838;50.144;8.176;2023-02-03T07:41:07;6.80;99.90
17442;DHT22;8838;50.144;8.176;2023-02-03T07:43:34;6.90;99.90
17442;DHT22;8838;50.144;8.176;2023-02-03T07:46:01;6.90;99.90
17442;DHT22;8838;50.144;8.176;2023-02-03T07:48:30;6.90;99.90
17442;DHT22;8838;50.144;8.176;2023-02-03T07:50:56;6.90;99.90
17442;DHT22;8838;50.144;8.176;2023-02-03T07:53:23;6.80;99.90
17442;DHT22;8838;50.144;8.176;2023-02-03T07:55:50;6.80;99.90
17442;DHT22;8838;50.144;8.176;2023-02-03T07:58:17;6.80;99.90
17442;DHT22;8838;50.144;8.176;2023-02-03T08:00:44;6.80;99.90
17442;DHT22;8838;50.144;8.176;2023-02-03T08:03:11;6.80;99.90
17442;DHT22;8838;50.144;8.176;2023-02-03T08:05:39;6.90;99.90
17442;DHT22;8838;50.144;8.176;2023-02-03T08:08:06;6.90;99.90
17442;DHT22;8838;50.144;8.176;2023-02-03T08:10:33;6.90;99.90
17442;DHT22;8838;50.144;8.176;2023-02-03T08:12:59;6.90;99.90
17442;DHT22;8838;50.144;8.176;2023-02-03T08:15:26;6.90;99.90
17442;DHT22;8838;50.144;8.176;2023-02-03T08:17:53;6.80;99.90
17442;DHT22;8838;50.144;8.176;2023-02-03T08:20:20;6.90;99.90
17442;DHT22;8838;50.144;8.176;2023-02-03T08:22:48;6.90;99.90
17442;DHT22;8838;50.144;8.176;2023-02-03T08:25:15;6.90;99.90
17442;DHT22;8838;50.144;8.176;2023-02-03T08:27:42;7.00;99.90
17442;DHT22;8838;50.144;8.176;2023-02-03T08:30:12;7.00;99.90
17442;DHT22;8838;50.144;8.176;2023-02-03T08:32:39;7.00;99.90
17442;DHT22;8838;50.144;8.176;2023-02-03T08:35:07;7.10;99.90
17442;DHT22;8838;50.144;8.176;2023-02-03T08:37:33;7.10;99.90
17442;DHT22;8838;50.144;8.176;2023-02-03T08:40:03;7.00;99.90
17442;DHT22;8838;50.144;8.176;2023-02-03T08:42:30;7.00;99.90
17442;DHT22;8838;50.144;8.176;2023-02-03T08:44:57;7.10;99.90
17442;DHT22;8838;50.144;8.176;2023-02-03T08:47:24;7.10;99.90
17442;DHT22;8838;50.144;8.176;2023-02-03T08:49:51;7.10;99.90
17442;DHT22;8838;50.144;8.176;2023-02-03T08:52:18;7.10;99.90
17442;DHT22;8838;50.144;8.176;2023-02-03T08:54:46;7.10;99.90
17442;DHT22;8838;50.144;8.176;2023-02-03T08:57:14;7.10;99.90
17442;DHT22;8838;50.144;8.176;2023-02-03T08:59:42;7.20;99.90
17442;DHT22;8838;50.144;8.176;2023-02-03T09:02:13;7.20;99.90
17442;DHT22;8838;50.144;8.176;2023-02-03T09:04:41;7.20;99.90
17442;DHT22;8838;50.144;8.176;2023-02-03T09:07:08;7.20;99.90
17442;DHT22;8838;50.144;8.176;2023-02-03T09:09:35;7.20;99.90
17442;DHT22;8838;50.144;8.176;2023-02-03T09:12:04;7.20;99.90
17442;DHT22;8838;50.144;8.176;2023-02-03T09:14:33;7.20;99.90
17442;DHT22;8838;50.144;8.176;2023-02-03T09:17:01;7.30;99.90
17442;DHT22;8838;50.144;8.176;2023-02-03T09:19:29;7.20;99.90
17442;DHT22;8838;50.144;8.176;2023-02-03T09:21:56;7.30;99.90
17442;DHT22;8838;50.144;8.176;2023-02-03T09:24:23;7.30;99.90
17442;DHT22;8838;50.144;8.176;2023-02-03T09:26:50;7.30;99.90
17442;DHT22;8838;50.144;8.176;2023-02-03T09:29:17;7.40;99.90
17442;DHT22;8838;50.144;8.176;2023-02-03T09:31:47;7.40;99.90
17442;DHT22;8838;50.144;8.176;2023-02-03T09:34:15;7.40;99.90
17442;DHT22;8838;50.144;8.176;2023-02-03T09:36:41;7.40;99.90
17442;DHT22;8838;50.144;8.176;2023-02-03T09:39:09;7.40;99.90
17442;DHT22;8838;50.144;8.176;2023-02-03T09:41:52;7.40;99.90
17442;DHT22;8838;50.144;8.176;2023-02-03T09:44:27;7.50;99.90
17442;DHT22;8838;50.144;8.176;2023-02-03T09:47:00;7.50;99.90
17442;DHT22;8838;50.144;8.176;2023-02-03T09:49:35;7.60;99.90
17442;DHT22;8838;50.144;8.176;2023-02-03T09:52:07;7.60;99.90
17442;DHT22;8838;50.144;8.176;2023-02-03T09:54:38;7.60;99.90
17442;DHT22;8838;50.144;8.176;2023-02-03T09:57:15;7.60;99.90
17442;DHT22;8838;50.144;8.176;2023-02-03T09:59:43;7.70;99.90
17442;DHT22;8838;50.144;8.176;2023-02-03T10:02:27;7.70;99.90
17442;DHT22;8838;50.144;8.176;2023-02-03T10:05:00;7.70;99.90
17442;DHT22;8838;50.144;8.176;2023-02-03T10:07:37;7.70;99.90
17442;DHT22;8838;50.144;8.176;2023-02-03T10:10:13;7.60;99.90
17442;DHT22;8838;50.144;8.176;2023-02-03T10:12:52;7.70;99.90
17442;DHT22;8838;50.144;8.176;2023-02-03T10:15:37;7.70;99.90
17442;DHT22;8838;50.144;8.176;2023-02-03T10:18:11;7.70;99.90
17442;DHT22;8838;50.144;8.176;2023-02-03T10:20:44;7.70;99.90
17442;DHT22;8838;50.144;8.176;2023-02-03T10:23:16;7.60;99.90
17442;DHT22;8838;50.144;8.176;2023-02-03T10:25:48;7.60;99.90
17442;DHT22;8838;50.144;8.176;2023-02-03T10:28:21;7.60;99.90
17442;DHT22;8838;50.144;8.176;2023-02-03T10:30:50;7.60;99.90
17442;DHT22;8838;50.144;8.176;2023-02-03T10:33:20;7.60;99.90
17442;DHT22;8838;50.144;8.176;2023-02-03T10:35:50;7.60;99.90
17442;DHT22;8838;50.144;8.176;2023-02-03T10:38:33;7.60;99.90
17442;DHT22;8838;50.144;8.176;2023-02-03T10:41:01;7.60;99.90
17442;DHT22;8838;50.144;8.176;2023-02-03T10:43:30;7.50;99.90
17442;DHT22;8838;50.144;8.176;2023-02-03T10:46:17;7.50;99.90
17442;DHT22;8838;50.144;8.176;2023-02-03T10:48:46;7.40;99.90
17442;DHT22;8838;50.144;8.176;2023-02-03T10:51:17;7.40;99.90
17442;DHT22;8838;50.144;8.176;2023-02-03T10:53:45;7.40;99.90
17442;DHT22;8838;50.144;8.176;2023-02-03T10:56:14;7.40;99.90
17442;DHT22;8838;50.144;8.176;2023-02-03T10:58:47;7.30;99.90
17442;DHT22;8838;50.144;8.176;2023-02-03T11:01:16;7.20;99.90
17442;DHT22;8838;50.144;8.176;2023-02-03T11:03:53;7.20;99.90
17442;DHT22;8838;50.144;8.176;2023-02-03T11:06:22;7.20;99.90
17442;DHT22;8838;50.144;8.176;2023-02-03T11:08:50;7.10;99.90
17442;DHT22;8838;50.144;8.176;2023-02-03T11:11:22;7.10;99.90
17442;DHT22;8838;50.144;8.176;2023-02-03T11:14:10;7.10;99.90
17442;DHT22;8838;50.144;8.176;2023-02-03T11:16:38;7.10;99.90
17442;DHT22;8838;50.144;8.176;2023-02-03T11:19:14;7.10;99.90
17442;DHT22;8838;50.144;8.176;2023-02-03T11:21:44;7.00;99.90
17442;DHT22;8838;50.144;8.176;2023-02-03T11:24:16;7.00;99.90
17442;DHT22;8838;50.144;8.176;2023-02-03T11:26:47;6.90;99.90
17442;DHT22;8838;50.144;8.176;2023-02-03T11:29:17;7.00;99.90
17442;DHT22;8838;50.144;8.176;2023-02-03T11:31:48;7.10;99.90
17442;DHT22;8838;50.144;8.176;2023-02-03T11:34:20;7.10;99.90
17442;DHT22;8838;50.144;8.176;2023-02-03T11:36:50;7.00;99.90
17442;DHT22;8838;50.144;8.176;2023-02-03T11:39:25;7.00;99.90
17442;DHT22;8838;50.144;8.176;2023-02-03T11:41:53;7.00;99.90
17442;DHT22;8838;50.144;8.176;2023-02-03T11:44:25;7.00;99.90
17442;DHT22;8838;50.144;8.176;2023-02-03T11:46:58;7.00;99.90
17442;DHT22;8838;50.144;8.176;2023-02-03T11:50:02;7.00;99.90
17442;DHT22;8838;50.144;8.176;2023-02-03T11:52:54;7.00;99.90
17442;DHT22;8838;50.144;8.176;2023-02-03T11:55:45;7.00;99.90
17442;DHT22;8838;50.144;8.176;2023-02-03T11:58:37;7.00;99.90
17442;DHT22;8838;50.144;8.176;2023-02-03T12:01:15;7.00;99.90
17442;DHT22;8838;50.144;8.176;2023-02-03T12:07:07;6.90;99.90
17442;DHT22;8838;50.144;8.176;2023-02-03T12:09:47;6.90;99.90
17442;DHT22;8838;50.144;8.176;2023-02-03T12:12:46;6.90;99.90
17442;DHT22;8838;50.144;8.176;2023-02-03T12:15:32;7.00;99.90
17442;DHT22;8838;50.144;8.176;2023-02-03T12:18:14;7.10;99.90
17442;DHT22;8838;50.144;8.176;2023-02-03T12:20:53;7.10;99.90
17442;DHT22;8838;50.144;8.176;2023-02-03T12:23:35;7.20;99.90
17442;DHT22;8838;50.144;8.176;2023-02-03T12:26:12;7.20;99.90
17442;DHT22;8838;50.144;8.176;2023-02-03T12:28:47;7.20;99.90
17442;DHT22;8838;50.144;8.176;2023-02-03T12:31:22;7.20;99.90
17442;DHT22;8838;50.144;8.176;2023-02-03T12:33:56;7.20;99.90
17442;DHT22;8838;50.144;8.176;2023-02-03T12:36:27;7.20;99.90
17442;DHT22;8838;50.144;8.176;2023-02-03T12:39:01;7.20;99.90
17442;DHT22;8838;50.144;8.176;2023-02-03T12:41:34;7.20;99.90
17442;DHT22;8838;50.144;8.176;2023-02-03T12:44:06;7.30;99.90
17442;DHT22;8838;50.144;8.176;2023-02-03T12:46:36;7.30;99.90
17442;DHT22;8838;50.144;8.176;2023-02-03T12:49:13;7.30;99.90
17442;DHT22;8838;50.144;8.176;2023-02-03T12:51:44;7.30;99.90
17442;DHT22;8838;50.144;8.176;2023-02-03T12:54:25;7.30;99.90
17442;DHT22;8838;50.144;8.176;2023-02-03T12:57:01;7.30;99.90
17442;DHT22;8838;50.144;8.176;2023-02-03T12:59:32;7.30;99.90
17442;DHT22;8838;50.144;8.176;2023-02-03T13:02:02;7.30;99.90
17442;DHT22;8838;50.144;8.176;2023-02-03T13:04:34;7.30;99.90
17442;DHT22;8838;50.144;8.176;2023-02-03T13:07:07;7.40;99.90
17442;DHT22;8838;50.144;8.176;2023-02-03T13:09:44;7.40;99.90
17442;DHT22;8838;50.144;8.176;2023-02-03T13:12:22;7.40;99.90
17442;DHT22;8838;50.144;8.176;2023-02-03T13:14:53;7.40;99.90
17442;DHT22;8838;50.144;8.176;2023-02-03T13:17:26;7.40;99.90
17442;DHT22;8838;50.144;8.176;2023-02-03T13:19:57;7.40;99.90
17442;DHT22;8838;50.144;8.176;2023-02-03T13:22:25;7.40;99.90
17442;DHT22;8838;50.144;8.176;2023-02-03T13:25:16;7.40;99.90
17442;DHT22;8838;50.144;8.176;2023-02-03T13:27:49;7.40;99.90
17442;DHT22;8838;50.144;8.176;2023-02-03T13:30:37;7.40;99.90
17442;DHT22;8838;50.144;8.176;2023-02-03T13:33:43;7.40;99.90
17442;DHT22;8838;50.144;8.176;2023-02-03T13:36:28;7.50;99.90
17442;DHT22;8838;50.144;8.176;2023-02-03T13:39:25;7.50;99.90
17442;DHT22;8838;50.144;8.176;2023-02-03T13:42:13;7.50;99.90
17442;DHT22;8838;50.144;8.176;2023-02-03T13:44:45;7.50;99.90
17442;DHT22;8838;50.144;8.176;2023-02-03T13:47:15;7.50;99.90
17442;DHT22;8838;50.144;8.176;2023-02-03T13:49:47;7.40;99.90
17442;DHT22;8838;50.144;8.176;2023-02-03T13:52:27;7.40;99.90
17442;DHT22;8838;50.144;8.176;2023-02-03T13:54:55;7.40;99.90
17442;DHT22;8838;50.144;8.176;2023-02-03T13:57:30;7.40;99.90
17442;DHT22;8838;50.144;8.176;2023-02-03T14:00:00;7.40;99.90
17442;DHT22;8838;50.144;8.176;2023-02-03T14:02:52;7.40;99.90
17442;DHT22;8838;50.144;8.176;2023-02-03T14:05:41;7.40;99.90
17442;DHT22;8838;50.144;8.176;2023-02-03T14:11:40;7.40;99.90
17442;DHT22;8838;50.144;8.176;2023-02-03T14:14:43;7.40;99.90
17442;DHT22;8838;50.144;8.176;2023-02-03T14:20:56;7.40;99.90
17442;DHT22;8838;50.144;8.176;2023-02-03T14:23:42;7.50;99.90
17442;DHT22;8838;50.144;8.176;2023-02-03T14:26:23;7.50;99.90
17442;DHT22;8838;50.144;8.176;2023-02-03T14:28:51;7.50;99.90
17442;DHT22;8838;50.144;8.176;2023-02-03T14:31:20;7.50;99.90
17442;DHT22;8838;50.144;8.176;2023-02-03T14:34:08;7.50;99.90
17442;DHT22;8838;50.144;8.176;2023-02-03T14:36:52;7.50;99.90
17442;DHT22;8838;50.144;8.176;2023-02-03T14:42:40;7.60;99.90
17442;DHT22;8838;50.144;8.176;2023-02-03T14:45:24;7.60;99.90
17442;DHT22;8838;50.144;8.176;2023-02-03T14:48:07;7.60;99.90
17442;DHT22;8838;50.144;8.176;2023-02-03T14:50:45;7.60;99.90
17442;DHT22;8838;50.144;8.176;2023-02-03T14:56:12;7.60;99.90
17442;DHT22;8838;50.144;8.176;2023-02-03T14:58:45;7.70;99.90
17442;DHT22;8838;50.144;8.176;2023-02-03T15:01:24;7.70;99.90
17442;DHT22;8838;50.144;8.176;2023-02-03T15:04:22;7.70;99.90
17442;DHT22;8838;50.144;8.176;2023-02-03T15:06:51;7.80;99.90
17442;DHT22;8838;50.144;8.176;2023-02-03T15:09:24;7.80;99.90
17442;DHT22;8838;50.144;8.176;2023-02-03T15:11:53;7.80;99.90
17442;DHT22;8838;50.144;8.176;2023-02-03T15:14:22;7.80;99.90
17442;DHT22;8838;50.144;8.176;2023-02-03T15:16:55;7.80;99.90
17442;DHT22;8838;50.144;8.176;2023-02-03T15:19:26;7.90;99.90
17442;DHT22;8838;50.144;8.176;2023-02-03T15:21:55;7.80;99.90
17442;DHT22;8838;50.144;8.176;2023-02-03T15:24:22;7.90;99.90
17442;DHT22;8838;50.144;8.176;2023-02-03T15:26:52;7.80;99.90
17442;DHT22;8838;50.144;8.176;2023-02-03T15:29:22;7.90;99.90
17442;DHT22;8838;50.144;8.176;2023-02-03T15:31:57;7.90;99.90
17442;DHT22;8838;50.144;8.176;2023-02-03T15:34:28;7.90;99.90
17442;DHT22;8838;50.144;8.176;2023-02-03T15:37:00;7.90;99.90
17442;DHT22;8838;50.144;8.176;2023-02-03T15:39:36;7.90;99.90
17442;DHT22;8838;50.144;8.176;2023-02-03T15:42:08;7.90;99.90
17442;DHT22;8838;50.144;8.176;2023-02-03T15:44:40;8.00;99.90
17442;DHT22;8838;50.144;8.176;2023-02-03T15:47:20;7.90;99.90
17442;DHT22;8838;50.144;8.176;2023-02-03T15:50:03;8.00;99.90
17442;DHT22;8838;50.144;8.176;2023-02-03T15:52:33;8.00;99.90
17442;DHT22;8838;50.144;8.176;2023-02-03T15:55:09;8.00;99.90
17442;DHT22;8838;50.144;8.176;2023-02-03T15:57:43;8.00;99.90
17442;DHT22;8838;50.144;8.176;2023-02-03T16:00:28;8.00;99.90
17442;DHT22;8838;50.144;8.176;2023-02-03T16:02:58;8.00;99.90
17442;DHT22;8838;50.144;8.176;2023-02-03T16:05:28;8.00;99.90
17442;DHT22;8838;50.144;8.176;2023-02-03T16:07:56;8.00;99.90
17442;DHT22;8838;50.144;8.176;2023-02-03T16:10:43;8.10;99.90
17442;DHT22;8838;50.144;8.176;2023-02-03T16:13:18;8.10;99.90
17442;DHT22;8838;50.144;8.176;2023-02-03T16:15:58;8.10;99.90
17442;DHT22;8838;50.144;8.176;2023-02-03T16:18:25;8.10;99.90
17442;DHT22;8838;50.144;8.176;2023-02-03T16:20:56;8.10;99.90
17442;DHT22;8838;50.144;8.176;2023-02-03T16:23:24;8.00;99.90
17442;DHT22;8838;50.144;8.176;2023-02-03T16:26:21;8.10;99.90
17442;DHT22;8838;50.144;8.176;2023-02-03T16:29:10;8.00;99.90
17442;DHT22;8838;50.144;8.176;2023-02-03T16:31:55;8.10;99.90
17442;DHT22;8838;50.144;8.176;2023-02-03T16:34:40;8.00;99.90
17442;DHT22;8838;50.144;8.176;2023-02-03T16:37:27;7.90;99.90
17442;DHT22;8838;50.144;8.176;2023-02-03T16:40:14;7.90;99.90
17442;DHT22;8838;50.144;8.176;2023-02-03T16:43:01;7.80;99.90
17442;DHT22;8838;50.144;8.176;2023-02-03T16:45:52;7.90;99.90
17442;DHT22;8838;50.144;8.176;2023-02-03T16:48:38;7.90;99.90
17442;DHT22;8838;50.144;8.176;2023-02-03T16:51:22;7.80;99.90